createdAt,value
2022-12-23T00:04:28.883Z,5.98
2022-12-23T00:09:32.676Z,5.97
2022-12-23T00:14:54.765Z,5.97
2022-12-23T00:19:58.312Z,5.95
2022-12-23T00:25:01.620Z,5.90
2022-12-23T00:30:08.047Z,5.86
2022-12-23T00:35:11.873Z,5.94
2022-12-23T00:40:34.514Z,5.93
2022-12-23T00:45:38.347Z,5.93
2022-12-23T00:50:41.856Z,5.93
2022-12-23T00:55:49.010Z,5.93
2022-12-23T01:01:12.937Z,5.93
2022-12-23T01:06:17.392Z,5.92
2022-12-23T01:11:21.415Z,5.83
2022-12-23T01:16:24.892Z,5.92
2022-12-23T01:21:28.493Z,5.92
2022-12-23T01:26:31.918Z,5.91
2022-12-23T01:31:35.582Z,5.91
2022-12-23T01:36:39.300Z,5.90
2022-12-23T01:42:01.631Z,5.90
2022-12-23T01:47:11.974Z,5.90
2022-12-23T01:52:15.403Z,5.90
2022-12-23T01:57:18.828Z,5.91
2022-12-23T02:02:41.187Z,5.92
2022-12-23T02:08:03.927Z,5.92
2022-12-23T02:13:20.106Z,5.92
2022-12-23T02:18:46.359Z,5.93
2022-12-23T02:24:35.373Z,5.94
2022-12-23T02:30:04.856Z,5.96
2022-12-23T02:35:34.007Z,5.97
2022-12-23T02:41:06.923Z,5.99
2022-12-23T02:46:13.831Z,6.02
2022-12-23T02:51:19.854Z,6.05
2022-12-23T02:56:27.151Z,6.07
2022-12-23T03:01:32.710Z,6.10
2022-12-23T03:06:41.588Z,6.13
2022-12-23T03:11:59.044Z,6.17
2022-12-23T03:17:33.807Z,6.22
2022-12-23T03:22:43.515Z,6.26
2022-12-23T03:27:59.120Z,6.30
2022-12-23T03:33:18.499Z,6.33
2022-12-23T03:38:23.106Z,6.34
2022-12-23T03:43:33.420Z,6.34
2022-12-23T03:48:59.160Z,6.35
2022-12-23T03:54:09.467Z,6.34
2022-12-23T03:59:25.426Z,6.33
2022-12-23T04:04:37.607Z,6.32
2022-12-23T04:09:54.585Z,6.31
2022-12-23T04:14:57.935Z,6.28
2022-12-23T04:20:01.226Z,6.27
2022-12-23T04:25:04.919Z,6.24
2022-12-23T04:30:10.743Z,6.21
2022-12-23T04:35:14.685Z,6.12
2022-12-23T04:40:18.153Z,6.14
2022-12-23T04:45:21.460Z,6.11
2022-12-23T04:50:24.835Z,6.07
2022-12-23T04:55:28.513Z,6.03
2022-12-23T05:00:38.950Z,5.99
2022-12-23T05:05:44.495Z,5.95
2022-12-23T05:10:47.937Z,5.88
2022-12-23T05:15:53.312Z,5.83
2022-12-23T05:20:56.886Z,5.77
2022-12-23T05:26:00.378Z,5.71
2022-12-23T05:31:08.151Z,5.66
2022-12-23T05:36:12.558Z,5.61
2022-12-23T05:41:18.539Z,5.57
2022-12-23T05:46:26.497Z,5.54
2022-12-23T05:51:30.600Z,5.51
2022-12-23T05:56:34.115Z,5.48
2022-12-23T06:01:37.614Z,5.46
2022-12-23T06:06:41.623Z,5.43
2022-12-23T06:11:45.121Z,5.44
2022-12-23T06:16:48.563Z,5.45
2022-12-23T06:21:52.237Z,5.45
2022-12-23T06:26:57.510Z,5.44
2022-12-23T06:32:01.212Z,5.41
2022-12-23T06:37:04.773Z,5.37
2022-12-23T06:42:09.767Z,5.33
2022-12-23T06:47:13.780Z,5.30
2022-12-23T06:52:17.427Z,5.28
2022-12-23T06:57:20.714Z,5.29
2022-12-23T07:02:24.642Z,5.30
2022-12-23T07:07:28.319Z,5.32
2022-12-23T07:12:31.802Z,5.33
2022-12-23T07:17:35.075Z,5.35
2022-12-23T07:22:38.651Z,5.36
2022-12-23T07:27:42.213Z,5.37
2022-12-23T07:32:48.656Z,5.37
2022-12-23T07:37:53.709Z,5.37
2022-12-23T07:42:58.964Z,5.35
2022-12-23T07:48:02.656Z,5.34
2022-12-23T07:53:05.795Z,5.33
2022-12-23T07:58:09.123Z,5.32
2022-12-23T08:03:12.721Z,5.32
2022-12-23T08:08:16.487Z,5.33
2022-12-23T08:13:19.928Z,5.34
2022-12-23T08:18:24.029Z,5.38
2022-12-23T08:23:28.451Z,5.42
2022-12-23T08:28:33.069Z,5.47
2022-12-23T08:33:38.440Z,5.52
2022-12-23T08:38:41.837Z,5.56
2022-12-23T08:43:45.665Z,5.61
2022-12-23T08:48:50.186Z,5.67
2022-12-23T08:54:01.084Z,5.65
2022-12-23T08:59:05.898Z,5.76
2022-12-23T09:04:09.384Z,5.81
2022-12-23T09:09:15.880Z,5.86
2022-12-23T09:14:19.338Z,5.91
2022-12-23T09:19:22.656Z,5.96
2022-12-23T09:24:25.927Z,6.01
2022-12-23T09:29:29.161Z,6.04
2022-12-23T09:34:32.513Z,6.07
2022-12-23T09:39:35.813Z,6.09
2022-12-23T09:44:48.711Z,6.12
2022-12-23T09:50:11.040Z,6.14
2022-12-23T09:55:16.096Z,6.15
2022-12-23T10:00:21.835Z,6.16
2022-12-23T10:05:38.008Z,6.15
2022-12-23T10:10:43.153Z,6.14
2022-12-23T10:15:49.912Z,6.15
2022-12-23T10:21:00.530Z,6.10
2022-12-23T10:26:39.822Z,6.20
2022-12-23T10:32:14.230Z,6.23
2022-12-23T10:37:27.870Z,6.24
2022-12-23T10:42:54.124Z,6.24
2022-12-23T10:48:22.738Z,6.24
2022-12-23T10:53:53.848Z,6.27
2022-12-23T10:59:01.099Z,6.26
2022-12-23T11:04:13.516Z,6.24
2022-12-23T11:09:20.769Z,6.23
2022-12-23T11:14:51.762Z,6.24
2022-12-23T11:20:11.324Z,6.27
2022-12-23T11:25:36.044Z,6.30
2022-12-23T11:30:58.584Z,6.33
2022-12-23T11:36:07.859Z,6.35
2022-12-23T11:41:11.312Z,6.36
2022-12-23T11:46:32.888Z,6.38
2022-12-23T11:51:36.381Z,6.40
2022-12-23T11:56:42.062Z,6.39
2022-12-23T12:01:49.260Z,6.44
2022-12-23T12:06:56.588Z,6.43
2022-12-23T12:12:07.578Z,6.46
2022-12-23T12:17:22.398Z,6.48
2022-12-23T12:22:34.544Z,6.48
2022-12-23T12:27:39.812Z,6.48
2022-12-23T12:32:51.426Z,6.48
2022-12-23T12:38:25.349Z,6.51
2022-12-23T12:43:32.302Z,6.52
2022-12-23T12:48:41.355Z,6.54
2022-12-23T12:54:05.838Z,6.57
2022-12-23T12:59:21.565Z,6.60
2022-12-23T13:04:48.775Z,6.62
2022-12-23T13:10:18.436Z,6.64
2022-12-23T13:15:49.674Z,6.67
2022-12-23T13:21:16.834Z,6.70
2022-12-23T13:26:27.902Z,6.71
2022-12-23T13:31:39.093Z,6.74
2022-12-23T13:36:53.855Z,6.76
2022-12-23T13:42:05.215Z,6.77
2022-12-23T13:47:44.939Z,6.77
2022-12-23T13:53:17.822Z,6.77
2022-12-23T13:58:24.623Z,6.79
2022-12-23T14:03:34.169Z,6.81
2022-12-23T14:08:42.728Z,6.82
2022-12-23T14:13:57.762Z,6.77
2022-12-23T14:19:08.811Z,6.83
2022-12-23T14:24:43.047Z,6.84
2022-12-23T14:30:13.635Z,6.85
2022-12-23T14:35:37.020Z,6.85
2022-12-23T14:41:09.178Z,6.85
2022-12-23T14:46:31.363Z,6.86
2022-12-23T14:51:35.880Z,6.86
2022-12-23T14:56:39.042Z,6.86
2022-12-23T15:02:02.809Z,6.86
2022-12-23T15:07:13.712Z,6.86
2022-12-23T15:12:30.185Z,6.87
2022-12-23T15:17:36.624Z,6.88
2022-12-23T15:22:42.098Z,6.88
2022-12-23T15:27:45.444Z,6.90
2022-12-23T15:32:53.104Z,6.91
2022-12-23T15:37:57.690Z,6.93
2022-12-23T15:43:03.475Z,6.94
2022-12-23T15:48:22.778Z,6.95
2022-12-23T15:53:33.104Z,6.97
2022-12-23T15:58:40.691Z,6.99
2022-12-23T16:03:53.048Z,7.00
2022-12-23T16:09:19.905Z,7.01
2022-12-23T16:14:25.381Z,7.03
2022-12-23T16:19:48.922Z,6.97
2022-12-23T16:25:01.608Z,7.06
2022-12-23T16:30:36.143Z,7.08
2022-12-23T16:35:42.187Z,7.09
2022-12-23T16:40:51.681Z,7.10
2022-12-23T16:45:56.840Z,7.12
2022-12-23T16:51:02.687Z,7.11
2022-12-23T16:56:14.249Z,7.13
2022-12-23T17:01:25.082Z,7.15
2022-12-23T17:06:29.019Z,7.16
2022-12-23T17:11:45.570Z,7.17
2022-12-23T17:16:49.821Z,7.18
2022-12-23T17:21:59.272Z,7.19
2022-12-23T17:27:02.807Z,7.19
2022-12-23T17:32:06.340Z,7.20
2022-12-23T17:37:21.033Z,7.21
2022-12-23T17:42:26.117Z,7.22
2022-12-23T17:47:29.778Z,7.22
2022-12-23T17:52:33.315Z,7.22
2022-12-23T17:57:36.653Z,7.21
2022-12-23T18:02:41.569Z,7.20
2022-12-23T18:07:45.058Z,7.20
2022-12-23T18:12:54.006Z,7.19
2022-12-23T18:17:58.385Z,7.17
2022-12-23T18:23:02.288Z,7.15
2022-12-23T18:28:06.046Z,7.13
2022-12-23T18:33:13.501Z,7.10
2022-12-23T18:38:17.813Z,7.07
2022-12-23T18:43:23.956Z,7.02
2022-12-23T18:48:27.363Z,6.98
2022-12-23T18:53:30.836Z,6.92
2022-12-23T18:58:34.800Z,6.88
2022-12-23T19:03:38.125Z,6.84
2022-12-23T19:08:42.856Z,6.81
2022-12-23T19:13:47.155Z,6.76
2022-12-23T19:18:50.672Z,6.73
2022-12-23T19:23:54.078Z,6.57
2022-12-23T19:28:57.386Z,6.64
2022-12-23T19:34:00.844Z,6.58
2022-12-23T19:39:04.300Z,6.53
2022-12-23T19:44:08.093Z,6.47
2022-12-23T19:49:19.119Z,6.41
2022-12-23T19:54:24.022Z,6.36
2022-12-23T19:59:27.719Z,6.31
2022-12-23T20:04:32.274Z,6.26
2022-12-23T20:09:35.889Z,6.24
2022-12-23T20:14:39.365Z,6.23
2022-12-23T20:19:46.221Z,6.21
2022-12-23T20:24:50.281Z,6.20
2022-12-23T20:29:53.757Z,6.20
2022-12-23T20:34:57.228Z,6.18
2022-12-23T20:40:00.697Z,6.16
2022-12-23T20:45:04.505Z,6.17
2022-12-23T20:50:08.172Z,6.17
2022-12-23T20:55:11.409Z,6.17
2022-12-23T21:00:15.113Z,6.16
2022-12-23T21:05:18.357Z,6.06
2022-12-23T21:10:21.696Z,6.13
2022-12-23T21:15:25.047Z,6.15
2022-12-23T21:20:28.316Z,6.24
2022-12-23T21:25:31.962Z,6.31
2022-12-23T21:30:35.278Z,6.43
2022-12-23T21:35:38.568Z,6.56
2022-12-23T21:40:42.136Z,6.69
2022-12-23T21:45:45.355Z,6.82
2022-12-23T21:50:48.632Z,6.82
2022-12-23T21:55:52.350Z,6.97
2022-12-23T22:00:55.812Z,7.03
2022-12-23T22:06:10.110Z,7.02
2022-12-23T22:11:20.153Z,7.02
2022-12-23T22:16:26.032Z,7.00
2022-12-23T22:21:32.077Z,6.92
2022-12-23T22:26:36.066Z,6.87
2022-12-23T22:31:44.809Z,6.88
2022-12-23T22:36:49.190Z,6.87
2022-12-23T22:41:53.082Z,6.78
2022-12-23T22:46:56.885Z,6.74
2022-12-23T22:52:00.419Z,6.69
2022-12-23T22:57:03.799Z,6.60
2022-12-23T23:02:07.154Z,6.56
2022-12-23T23:07:10.595Z,6.49
2022-12-23T23:12:13.999Z,6.39
2022-12-23T23:17:17.402Z,6.35
2022-12-23T23:22:23.348Z,6.32
2022-12-23T23:27:26.796Z,6.26
2022-12-23T23:32:30.334Z,6.19
2022-12-23T23:37:33.837Z,6.14
2022-12-23T23:42:37.053Z,6.07
2022-12-23T23:47:40.720Z,5.98
2022-12-23T23:52:44.199Z,5.96
2022-12-23T23:57:47.525Z,5.91
